createdAt,value
2022-10-11T00:01:38.508Z,16.90
2022-10-11T00:04:06.299Z,17.00
2022-10-11T00:06:34.086Z,17.00
2022-10-11T00:09:03.191Z,17.00
2022-10-11T00:11:30.999Z,17.00
2022-10-11T00:13:58.925Z,17.00
2022-10-11T00:16:26.746Z,16.90
2022-10-11T00:18:54.554Z,17.00
2022-10-11T00:21:22.642Z,17.00
2022-10-11T00:23:50.798Z,17.00
2022-10-11T00:26:19.882Z,17.00
2022-10-11T00:28:47.878Z,17.00
2022-10-11T00:31:16.632Z,17.10
2022-10-11T00:33:44.485Z,17.00
2022-10-11T00:36:14.376Z,17.00
2022-10-11T00:38:42.492Z,17.00
2022-10-11T00:41:10.730Z,17.00
2022-10-11T00:43:40.398Z,16.90
2022-10-11T00:46:27.738Z,16.90
2022-10-11T00:49:00.830Z,17.00
2022-10-11T00:51:38.670Z,17.00
2022-10-11T00:54:08.527Z,17.00
2022-10-11T00:56:39.968Z,17.00
2022-10-11T00:59:15.027Z,17.00
2022-10-11T01:01:42.912Z,16.90
2022-10-11T01:04:10.838Z,16.90
2022-10-11T01:06:38.640Z,16.90
2022-10-11T01:09:06.519Z,16.90
2022-10-11T01:11:37.257Z,16.80
2022-10-11T01:14:30.083Z,16.90
2022-10-11T01:17:04.510Z,16.90
2022-10-11T01:19:52.191Z,16.90
2022-10-11T01:22:37.479Z,16.90
2022-10-11T01:25:20.015Z,16.90
2022-10-11T01:28:02.919Z,16.90
2022-10-11T01:30:34.037Z,16.80
2022-10-11T01:33:13.973Z,16.90
2022-10-11T01:35:49.286Z,16.90
2022-10-11T01:38:24.522Z,16.90
2022-10-11T01:40:57.098Z,16.80
2022-10-11T01:43:26.981Z,16.80
2022-10-11T01:45:58.821Z,16.80
2022-10-11T01:48:26.707Z,16.80
2022-10-11T01:50:56.814Z,16.80
2022-10-11T01:53:47.025Z,16.80
2022-10-11T01:56:23.552Z,16.80
2022-10-11T01:59:07.960Z,16.80
2022-10-11T02:01:49.915Z,16.80
2022-10-11T02:04:28.306Z,16.80
2022-10-11T02:07:01.638Z,16.80
2022-10-11T02:09:37.086Z,16.80
2022-10-11T02:12:09.351Z,16.80
2022-10-11T02:14:42.261Z,16.80
2022-10-11T02:17:15.139Z,16.80
2022-10-11T02:19:46.375Z,16.80
2022-10-11T02:22:19.743Z,16.80
2022-10-11T02:24:50.326Z,16.80
2022-10-11T02:27:22.820Z,16.80
2022-10-11T02:29:53.896Z,16.90
2022-10-11T02:32:26.427Z,16.80
2022-10-11T02:34:56.662Z,16.80
2022-10-11T02:37:32.047Z,16.80
2022-10-11T02:40:05.844Z,16.80
2022-10-11T02:42:37.942Z,16.80
2022-10-11T02:45:11.680Z,16.80
2022-10-11T02:47:42.230Z,16.80
2022-10-11T02:50:12.019Z,16.80
2022-10-11T02:52:39.908Z,16.70
2022-10-11T02:55:09.604Z,16.80
2022-10-11T02:57:37.423Z,16.80
2022-10-11T03:00:06.072Z,16.70
2022-10-11T03:02:33.980Z,16.70
2022-10-11T03:05:03.278Z,16.80
2022-10-11T03:07:31.077Z,16.70
2022-10-11T03:09:58.915Z,16.70
2022-10-11T03:12:26.742Z,16.70
2022-10-11T03:14:54.586Z,16.70
2022-10-11T03:17:36.019Z,16.70
2022-10-11T03:20:07.204Z,16.60
2022-10-11T03:22:35.063Z,16.60
2022-10-11T03:25:04.589Z,16.60
2022-10-11T03:27:32.751Z,16.60
2022-10-11T03:30:00.632Z,16.60
2022-10-11T03:32:28.451Z,16.60
2022-10-11T03:34:56.292Z,16.60
2022-10-11T03:37:25.715Z,16.90
2022-10-11T03:39:53.878Z,17.00
2022-10-11T03:42:22.013Z,17.00
2022-10-11T03:44:51.805Z,17.10
2022-10-11T03:47:19.957Z,17.20
2022-10-11T03:49:47.819Z,17.20
2022-10-11T03:52:15.618Z,17.20
2022-10-11T03:54:44.836Z,17.20
2022-10-11T03:57:12.614Z,17.20
2022-10-11T03:59:40.363Z,17.10
2022-10-11T04:02:08.197Z,17.30
2022-10-11T04:04:37.512Z,17.30
2022-10-11T04:07:05.277Z,17.40
2022-10-11T04:09:33.129Z,17.40
2022-10-11T04:12:02.375Z,17.40
2022-10-11T04:14:30.310Z,17.30
2022-10-11T04:17:00.404Z,17.40
2022-10-11T04:19:28.831Z,17.40
2022-10-11T04:21:57.068Z,17.40
2022-10-11T04:24:24.894Z,17.50
2022-10-11T04:26:52.722Z,17.50
2022-10-11T04:29:22.252Z,17.60
2022-10-11T04:31:50.112Z,17.50
2022-10-11T04:34:18.036Z,17.60
2022-10-11T04:36:49.760Z,17.50
2022-10-11T04:39:18.225Z,17.50
2022-10-11T04:41:46.047Z,17.50
2022-10-11T04:44:13.848Z,17.50
2022-10-11T04:46:43.129Z,17.50
2022-10-11T04:49:10.960Z,17.50
2022-10-11T04:51:38.809Z,17.50
2022-10-11T04:54:06.696Z,17.40
2022-10-11T04:56:34.604Z,17.40
2022-10-11T04:59:02.376Z,17.40
2022-10-11T05:01:30.203Z,17.40
2022-10-11T05:03:59.349Z,17.40
2022-10-11T05:06:27.358Z,17.40
2022-10-11T05:08:55.183Z,17.40
2022-10-11T05:11:23.293Z,17.40
2022-10-11T05:13:51.077Z,17.40
2022-10-11T05:16:19.063Z,17.40
2022-10-11T05:18:46.844Z,17.40
2022-10-11T05:21:18.896Z,17.40
2022-10-11T05:23:47.791Z,17.40
2022-10-11T05:26:15.889Z,17.40
2022-10-11T05:28:44.286Z,17.40
2022-10-11T05:31:12.530Z,17.30
2022-10-11T05:33:40.336Z,17.30
2022-10-11T05:36:09.380Z,17.30
2022-10-11T05:38:39.334Z,17.30
2022-10-11T05:41:09.172Z,17.30
2022-10-11T05:43:37.458Z,17.40
2022-10-11T05:46:05.765Z,17.40
2022-10-11T05:48:34.198Z,17.40
2022-10-11T05:51:03.222Z,17.30
2022-10-11T05:53:31.106Z,17.30
2022-10-11T05:56:00.484Z,17.30
2022-10-11T05:58:28.808Z,17.40
2022-10-11T06:00:57.625Z,17.40
2022-10-11T06:03:25.457Z,17.00
2022-10-11T06:05:56.750Z,16.20
2022-10-11T06:08:24.903Z,15.70
2022-10-11T06:10:52.678Z,15.50
2022-10-11T06:13:21.788Z,15.40
2022-10-11T06:15:49.560Z,15.20
2022-10-11T06:18:17.363Z,15.10
2022-10-11T06:20:45.136Z,15.00
2022-10-11T06:23:12.966Z,15.10
2022-10-11T06:25:40.750Z,15.00
2022-10-11T06:28:08.606Z,14.80
2022-10-11T06:30:39.728Z,14.80
2022-10-11T06:33:07.549Z,14.80
2022-10-11T06:35:35.311Z,14.80
2022-10-11T06:38:03.097Z,14.90
2022-10-11T06:40:30.889Z,14.90
2022-10-11T06:42:58.690Z,15.10
2022-10-11T06:45:26.481Z,15.00
2022-10-11T06:47:55.612Z,15.00
2022-10-11T06:50:47.081Z,14.80
2022-10-11T06:53:11.535Z,14.80
2022-10-11T06:55:39.307Z,14.80
2022-10-11T06:58:07.118Z,15.00
2022-10-11T07:00:34.924Z,15.00
2022-10-11T07:03:04.497Z,15.00
2022-10-11T07:05:34.612Z,14.90
2022-10-11T07:08:02.488Z,15.00
2022-10-11T07:10:30.259Z,14.90
2022-10-11T07:12:58.031Z,15.10
2022-10-11T07:15:25.804Z,15.00
2022-10-11T07:17:53.603Z,15.00
2022-10-11T07:20:22.726Z,15.10
2022-10-11T07:22:50.511Z,15.10
2022-10-11T07:25:18.455Z,15.40
2022-10-11T07:27:46.234Z,15.60
2022-10-11T07:30:14.292Z,16.00
2022-10-11T07:32:42.108Z,16.10
2022-10-11T07:35:10.114Z,16.30
2022-10-11T07:37:39.256Z,16.50
2022-10-11T07:40:10.779Z,16.60
2022-10-11T07:42:38.668Z,16.60
2022-10-11T07:45:07.206Z,16.70
2022-10-11T07:47:35.026Z,17.00
2022-10-11T07:50:02.896Z,17.20
2022-10-11T07:52:30.700Z,17.60
2022-10-11T07:54:59.802Z,17.70
2022-10-11T07:57:27.612Z,17.80
2022-10-11T07:59:55.378Z,17.80
2022-10-11T08:02:23.136Z,18.00
2022-10-11T08:04:50.926Z,18.20
2022-10-11T08:07:18.732Z,18.30
2022-10-11T08:09:46.499Z,18.30
2022-10-11T08:12:15.672Z,18.30
2022-10-11T08:14:43.450Z,18.50
2022-10-11T08:17:11.232Z,18.60
2022-10-11T08:19:39.010Z,18.70
2022-10-11T08:22:07.008Z,18.80
2022-10-11T08:24:38.281Z,18.80
2022-10-11T08:27:06.599Z,18.80
2022-10-11T08:29:35.737Z,18.90
2022-10-11T08:32:03.516Z,19.20
2022-10-11T08:34:31.312Z,19.20
2022-10-11T08:36:59.088Z,19.20
2022-10-11T08:39:26.853Z,19.40
2022-10-11T08:41:56.794Z,19.60
2022-10-11T08:45:05.477Z,19.70
2022-10-11T08:47:31.442Z,19.70
2022-10-11T08:50:00.504Z,19.70
2022-10-11T08:52:32.082Z,19.50
2022-10-11T08:55:05.543Z,19.50
2022-10-11T08:57:36.867Z,19.40
2022-10-11T09:00:08.566Z,19.30
2022-10-11T09:03:07.092Z,19.40
2022-10-11T09:05:35.949Z,19.80
2022-10-11T09:08:11.411Z,20.10
2022-10-11T09:11:04.063Z,20.20
2022-10-11T09:13:58.669Z,20.20
2022-10-11T09:16:37.525Z,20.00
2022-10-11T09:19:22.982Z,19.50
2022-10-11T09:22:00.403Z,19.10
2022-10-11T09:24:37.864Z,18.80
2022-10-11T09:27:13.828Z,19.00
2022-10-11T09:29:51.947Z,19.40
2022-10-11T09:32:21.930Z,19.20
2022-10-11T09:34:56.599Z,19.10
2022-10-11T09:37:30.373Z,19.00
2022-10-11T09:40:04.669Z,18.90
2022-10-11T09:42:32.450Z,18.80
2022-10-11T09:45:02.830Z,18.80
2022-10-11T09:47:32.924Z,18.60
2022-10-11T09:50:03.936Z,18.60
2022-10-11T09:52:32.068Z,18.50
2022-10-11T09:55:01.372Z,18.50
2022-10-11T09:57:31.408Z,18.50
2022-10-11T10:00:02.259Z,18.60
2022-10-11T10:02:46.776Z,18.50
2022-10-11T10:05:18.597Z,18.40
2022-10-11T10:08:08.000Z,18.40
2022-10-11T10:10:39.603Z,18.30
2022-10-11T10:13:20.027Z,18.40
2022-10-11T10:15:50.766Z,18.20
2022-10-11T10:18:24.607Z,18.30
2022-10-11T10:20:54.936Z,18.60
2022-10-11T10:23:25.768Z,18.80
2022-10-11T10:26:09.566Z,19.00
2022-10-11T10:28:37.694Z,19.00
2022-10-11T10:31:05.509Z,19.10
2022-10-11T10:33:35.850Z,19.10
2022-10-11T10:36:09.351Z,19.20
2022-10-11T10:38:41.630Z,19.20
2022-10-11T10:41:13.407Z,19.00
2022-10-11T10:43:43.112Z,18.90
2022-10-11T10:46:27.235Z,18.90
2022-10-11T10:52:03.022Z,18.70
2022-10-11T10:54:41.225Z,18.90
2022-10-11T10:57:19.058Z,19.00
2022-10-11T11:00:06.104Z,19.00
2022-10-11T11:02:41.811Z,18.90
2022-10-11T11:05:26.950Z,18.80
2022-10-11T11:08:04.229Z,18.70
2022-10-11T11:10:37.894Z,18.50
2022-10-11T11:13:19.779Z,18.50
2022-10-11T11:15:53.599Z,18.40
2022-10-11T11:18:29.909Z,18.50
2022-10-11T11:21:19.786Z,18.60
2022-10-11T11:23:56.762Z,18.70
2022-10-11T11:26:33.616Z,18.80
2022-10-11T11:29:12.196Z,19.00
2022-10-11T11:31:58.038Z,19.30
2022-10-11T11:34:29.430Z,19.50
2022-10-11T11:37:02.822Z,19.70
2022-10-11T11:39:35.840Z,19.30
2022-10-11T11:42:10.455Z,19.40
2022-10-11T11:44:42.392Z,19.40
2022-10-11T11:47:17.723Z,18.90
2022-10-11T11:49:50.214Z,18.60
2022-10-11T11:52:27.390Z,18.50
2022-10-11T11:55:04.238Z,18.30
2022-10-11T11:57:42.164Z,18.20
2022-10-11T12:00:16.760Z,18.00
2022-10-11T12:02:49.790Z,18.00
2022-10-11T12:05:21.482Z,18.10
2022-10-11T12:07:55.544Z,18.10
2022-10-11T12:10:30.236Z,18.10
2022-10-11T12:13:19.938Z,18.30
2022-10-11T12:16:10.081Z,18.20
2022-10-11T12:18:50.592Z,18.30
2022-10-11T12:21:23.169Z,18.20
2022-10-11T12:23:53.654Z,18.40
2022-10-11T12:26:43.283Z,18.20
2022-10-11T12:29:45.927Z,18.10
2022-10-11T12:32:51.023Z,18.10
2022-10-11T12:36:04.020Z,18.20
2022-10-11T12:38:37.676Z,18.20
2022-10-11T12:41:50.675Z,18.20
2022-10-11T12:44:23.903Z,18.00
2022-10-11T12:47:14.246Z,18.00
2022-10-11T12:49:56.783Z,17.80
2022-10-11T12:52:35.397Z,17.70
2022-10-11T12:55:30.534Z,17.70
2022-10-11T12:58:28.618Z,17.70
2022-10-11T13:01:12.848Z,17.70
2022-10-11T13:03:43.420Z,17.70
2022-10-11T13:06:15.010Z,17.70
2022-10-11T13:08:46.324Z,17.70
2022-10-11T13:11:19.999Z,17.70
2022-10-11T13:13:54.061Z,17.60
2022-10-11T13:16:25.089Z,17.60
2022-10-11T13:18:58.432Z,17.60
2022-10-11T13:21:30.573Z,17.60
2022-10-11T13:24:01.108Z,17.60
2022-10-11T13:26:31.457Z,17.60
2022-10-11T13:29:01.302Z,17.60
2022-10-11T13:31:29.629Z,17.60
2022-10-11T13:33:59.890Z,17.60
2022-10-11T13:36:28.534Z,17.70
2022-10-11T13:38:58.680Z,17.70
2022-10-11T13:41:28.100Z,17.70
2022-10-11T13:43:57.745Z,17.70
2022-10-11T13:46:28.829Z,17.70
2022-10-11T13:49:01.566Z,17.80
2022-10-11T13:51:33.119Z,17.80
2022-10-11T13:54:03.191Z,17.80
2022-10-11T13:56:33.625Z,17.80
2022-10-11T13:59:02.043Z,17.80
2022-10-11T14:01:39.325Z,17.80
2022-10-11T14:04:09.896Z,17.80
2022-10-11T14:06:47.239Z,17.90
2022-10-11T14:09:21.636Z,17.80
2022-10-11T14:11:49.946Z,17.80
2022-10-11T14:14:41.889Z,17.80
2022-10-11T14:17:17.156Z,17.80
2022-10-11T14:19:46.014Z,17.70
2022-10-11T14:22:16.419Z,17.80
2022-10-11T14:24:47.258Z,17.80
2022-10-11T14:27:19.216Z,17.70
2022-10-11T14:30:00.491Z,17.70
2022-10-11T14:32:37.244Z,17.80
2022-10-11T14:35:05.726Z,17.80
2022-10-11T14:37:33.574Z,17.70
2022-10-11T14:40:01.356Z,17.70
2022-10-11T14:42:29.156Z,17.60
2022-10-11T14:44:56.948Z,17.60
2022-10-11T14:47:24.755Z,17.60
2022-10-11T14:49:53.874Z,17.50
2022-10-11T14:52:21.687Z,17.50
2022-10-11T14:54:49.474Z,17.50
2022-10-11T14:57:17.252Z,17.50
2022-10-11T14:59:45.100Z,17.50
2022-10-11T15:02:13.116Z,17.40
2022-10-11T15:04:40.964Z,17.40
2022-10-11T15:07:13.818Z,17.40
2022-10-11T15:09:41.655Z,17.40
2022-10-11T15:12:10.490Z,17.30
2022-10-11T15:14:38.308Z,17.30
2022-10-11T15:17:06.086Z,17.30
2022-10-11T15:19:33.914Z,17.30
2022-10-11T15:22:04.204Z,17.30
2022-10-11T15:24:33.348Z,17.30
2022-10-11T15:27:01.112Z,17.30
2022-10-11T15:29:29.117Z,17.30
2022-10-11T15:31:56.900Z,17.30
2022-10-11T15:34:24.703Z,17.30
2022-10-11T15:36:52.472Z,17.30
2022-10-11T15:39:30.492Z,17.30
2022-10-11T15:42:00.258Z,17.30
2022-10-11T15:44:28.099Z,17.20
2022-10-11T15:46:55.919Z,17.20
2022-10-11T15:49:23.813Z,17.30
2022-10-11T15:51:51.599Z,17.30
2022-10-11T15:54:19.420Z,17.20
2022-10-11T15:56:47.660Z,17.20
2022-10-11T15:59:16.755Z,17.20
2022-10-11T16:01:44.577Z,17.20
2022-10-11T16:04:12.382Z,17.20
2022-10-11T16:06:40.929Z,17.10
2022-10-11T16:09:08.770Z,17.00
2022-10-11T16:11:36.584Z,17.00
2022-10-11T16:14:04.511Z,17.00
2022-10-11T16:16:33.685Z,17.10
2022-10-11T16:19:01.437Z,17.00
2022-10-11T16:21:29.361Z,17.00
2022-10-11T16:23:57.137Z,16.90
2022-10-11T16:26:24.948Z,16.90
2022-10-11T16:28:52.769Z,16.90
2022-10-11T16:31:21.036Z,16.90
2022-10-11T16:33:52.720Z,16.80
2022-10-11T16:36:32.638Z,16.80
2022-10-11T16:39:01.323Z,16.70
2022-10-11T16:41:29.173Z,16.60
2022-10-11T16:43:57.440Z,16.60
2022-10-11T16:46:25.703Z,16.60
2022-10-11T16:48:56.686Z,16.60
2022-10-11T16:51:25.213Z,16.50
2022-10-11T16:53:53.493Z,16.40
2022-10-11T16:56:22.562Z,16.50
2022-10-11T16:58:51.346Z,16.60
2022-10-11T17:01:19.589Z,16.50
2022-10-11T17:03:47.484Z,16.60
2022-10-11T17:06:16.603Z,16.90
2022-10-11T17:08:44.378Z,17.00
2022-10-11T17:11:12.166Z,17.10
2022-10-11T17:13:40.012Z,17.10
2022-10-11T17:16:08.986Z,17.20
2022-10-11T17:18:37.451Z,17.20
2022-10-11T17:21:07.538Z,17.30
2022-10-11T17:23:36.886Z,17.40
2022-10-11T17:26:10.975Z,17.40
2022-10-11T17:28:39.655Z,17.50
2022-10-11T17:31:08.709Z,17.60
2022-10-11T17:33:37.071Z,17.50
2022-10-11T17:36:15.356Z,17.50
2022-10-11T17:38:44.482Z,17.60
2022-10-11T17:41:12.747Z,17.70
2022-10-11T17:43:40.728Z,17.70
2022-10-11T17:46:09.421Z,17.70
2022-10-11T17:48:39.144Z,17.60
2022-10-11T17:51:08.903Z,17.60
2022-10-11T17:53:37.421Z,17.60
2022-10-11T17:56:07.992Z,17.60
2022-10-11T17:58:36.043Z,17.60
2022-10-11T18:01:05.229Z,17.60
2022-10-11T18:03:33.719Z,17.50
2022-10-11T18:06:04.186Z,17.50
2022-10-11T18:08:35.308Z,17.60
2022-10-11T18:11:10.008Z,17.60
2022-10-11T18:13:37.853Z,17.60
2022-10-11T18:16:06.407Z,17.70
2022-10-11T18:18:34.463Z,17.80
2022-10-11T18:21:02.238Z,17.70
2022-10-11T18:23:30.056Z,17.60
2022-10-11T18:25:57.855Z,17.50
2022-10-11T18:28:27.030Z,17.60
2022-10-11T18:30:56.025Z,17.60
2022-10-11T18:33:23.826Z,17.60
2022-10-11T18:36:00.199Z,17.60
2022-10-11T18:38:27.976Z,17.60
2022-10-11T18:40:55.739Z,17.60
2022-10-11T18:43:23.606Z,17.50
2022-10-11T18:45:52.699Z,17.60
2022-10-11T18:48:20.455Z,17.80
2022-10-11T18:50:49.498Z,17.80
2022-10-11T18:53:17.292Z,17.50
2022-10-11T18:55:45.036Z,17.60
2022-10-11T18:58:12.792Z,17.60
2022-10-11T19:00:41.540Z,17.50
2022-10-11T19:03:10.877Z,17.60
2022-10-11T19:05:39.679Z,17.70
2022-10-11T19:08:07.521Z,17.70
2022-10-11T19:10:35.291Z,17.80
2022-10-11T19:13:03.080Z,17.80
2022-10-11T19:15:30.880Z,17.70
2022-10-11T19:17:58.641Z,17.70
2022-10-11T19:20:27.759Z,17.70
2022-10-11T19:22:55.552Z,17.80
2022-10-11T19:25:24.202Z,17.70
2022-10-11T19:27:51.974Z,17.70
2022-10-11T19:30:19.748Z,17.60
2022-10-11T19:32:47.539Z,17.50
2022-10-11T19:35:19.822Z,17.60
2022-10-11T19:37:49.283Z,17.60
2022-10-11T19:40:17.099Z,17.60
2022-10-11T19:42:44.881Z,17.60
2022-10-11T19:45:12.636Z,17.30
2022-10-11T19:47:40.452Z,17.00
2022-10-11T19:50:09.147Z,17.00
2022-10-11T19:52:40.358Z,17.00
2022-10-11T19:55:12.144Z,17.00
2022-10-11T19:57:39.940Z,17.00
2022-10-11T20:00:09.028Z,17.10
2022-10-11T20:02:36.843Z,17.10
2022-10-11T20:05:05.099Z,17.10
2022-10-11T20:07:33.112Z,17.20
2022-10-11T20:10:01.100Z,17.20
2022-10-11T20:12:30.535Z,17.20
2022-10-11T20:14:58.733Z,17.20
2022-10-11T20:17:46.633Z,17.20
2022-10-11T20:20:14.583Z,17.20
2022-10-11T20:22:42.392Z,17.30
2022-10-11T20:25:10.561Z,17.30
2022-10-11T20:27:42.360Z,17.20
2022-10-11T20:30:12.147Z,17.30
2022-10-11T20:32:39.939Z,17.20
2022-10-11T20:35:09.324Z,17.20
2022-10-11T20:37:37.968Z,17.20
2022-10-11T20:40:06.157Z,17.10
2022-10-11T20:42:34.035Z,17.20
2022-10-11T20:45:03.152Z,17.20
2022-10-11T20:47:31.344Z,17.20
2022-10-11T20:49:59.448Z,17.20
2022-10-11T20:52:27.283Z,17.10
2022-10-11T20:54:55.088Z,17.10
2022-10-11T20:57:22.847Z,17.10
2022-10-11T20:59:50.600Z,17.00
2022-10-11T21:02:19.736Z,17.10
2022-10-11T21:04:47.511Z,17.00
2022-10-11T21:07:15.286Z,17.00
2022-10-11T21:09:43.070Z,17.00
2022-10-11T21:12:10.838Z,17.00
2022-10-11T21:14:38.595Z,17.00
2022-10-11T21:17:06.367Z,16.90
2022-10-11T21:19:35.480Z,16.90
2022-10-11T21:22:03.552Z,16.90
2022-10-11T21:24:31.420Z,17.00
2022-10-11T21:27:00.812Z,16.90
2022-10-11T21:29:28.798Z,16.80
2022-10-11T21:31:56.628Z,16.80
2022-10-11T21:34:24.425Z,16.80
2022-10-11T21:36:53.546Z,16.90
2022-10-11T21:39:21.548Z,16.90
2022-10-11T21:41:49.316Z,16.80
2022-10-11T21:44:17.165Z,16.80
2022-10-11T21:49:32.703Z,16.80
2022-10-11T21:52:01.902Z,16.80
2022-10-11T21:54:29.706Z,16.80
2022-10-11T21:56:57.500Z,16.80
2022-10-11T21:59:25.242Z,16.70
2022-10-11T22:01:55.054Z,16.70
2022-10-11T22:04:26.034Z,16.60
2022-10-11T22:06:53.806Z,16.60
2022-10-11T22:09:22.982Z,16.60
2022-10-11T22:11:50.752Z,16.60
2022-10-11T22:14:18.982Z,16.60
2022-10-11T22:16:46.748Z,16.60
2022-10-11T22:19:14.526Z,16.60
2022-10-11T22:21:45.094Z,16.60
2022-10-11T22:24:13.276Z,16.60
2022-10-11T22:26:42.407Z,16.60
2022-10-11T22:29:10.454Z,16.60
2022-10-11T22:31:38.227Z,16.60
2022-10-11T22:34:06.018Z,16.50
2022-10-11T22:36:33.867Z,16.50
2022-10-11T22:39:02.671Z,16.60
2022-10-11T22:41:30.448Z,16.50
2022-10-11T22:43:59.576Z,16.50
2022-10-11T22:46:27.358Z,16.50
2022-10-11T22:48:55.166Z,16.50
2022-10-11T22:51:22.979Z,16.50
2022-10-11T22:53:50.775Z,16.40
2022-10-11T22:56:18.548Z,16.40
2022-10-11T22:58:46.397Z,16.40
2022-10-11T23:01:16.870Z,16.40
2022-10-11T23:03:48.063Z,16.30
2022-10-11T23:06:15.891Z,16.30
2022-10-11T23:08:44.294Z,16.40
2022-10-11T23:11:12.609Z,16.40
2022-10-11T23:13:40.474Z,16.40
2022-10-11T23:16:09.574Z,16.30
2022-10-11T23:18:39.444Z,16.30
2022-10-11T23:21:08.323Z,16.30
2022-10-11T23:23:36.401Z,16.30
2022-10-11T23:26:06.545Z,16.30
2022-10-11T23:28:34.588Z,16.20
2022-10-11T23:31:07.467Z,16.30
2022-10-11T23:33:35.352Z,16.30
2022-10-11T23:36:04.755Z,16.30
2022-10-11T23:38:32.549Z,16.30
2022-10-11T23:41:00.329Z,16.20
2022-10-11T23:43:28.587Z,16.20
2022-10-11T23:45:57.197Z,16.10
2022-10-11T23:48:25.052Z,16.10
2022-10-11T23:50:52.870Z,16.10
2022-10-11T23:53:21.998Z,16.20
2022-10-11T23:55:49.770Z,16.20
2022-10-11T23:58:17.549Z,16.20
